createdAt,value
2018-11-14T00:01:13.606Z,8.50
2018-11-14T00:03:44.366Z,8.50
2018-11-14T00:06:14.142Z,8.50
2018-11-14T00:08:43.859Z,8.50
2018-11-14T00:11:14.481Z,8.50
2018-11-14T00:13:44.211Z,8.40
2018-11-14T00:16:13.951Z,8.50
2018-11-14T00:18:43.687Z,8.50
2018-11-14T00:21:15.508Z,8.40
2018-11-14T00:23:45.222Z,8.50
2018-11-14T00:26:15.982Z,8.50
2018-11-14T00:28:45.707Z,8.50
2018-11-14T00:31:16.489Z,8.40
2018-11-14T00:33:46.246Z,8.50
2018-11-14T00:36:16.022Z,8.50
2018-11-14T00:38:45.738Z,8.60
2018-11-14T00:41:16.415Z,8.50
2018-11-14T00:43:46.148Z,8.50
2018-11-14T00:46:15.902Z,8.50
2018-11-14T00:48:45.622Z,8.50
2018-11-14T00:51:16.437Z,8.50
2018-11-14T00:53:47.179Z,8.50
2018-11-14T00:56:16.934Z,8.50
2018-11-14T00:58:46.660Z,8.50
2018-11-14T01:01:16.403Z,8.50
2018-11-14T01:03:47.923Z,8.50
2018-11-14T01:06:17.708Z,8.50
2018-11-14T01:08:47.446Z,8.50
2018-11-14T01:11:17.890Z,8.50
2018-11-14T01:13:48.535Z,8.50
2018-11-14T01:16:18.325Z,8.60
2018-11-14T01:18:49.082Z,8.50
2018-11-14T01:21:18.841Z,8.50
2018-11-14T01:23:49.574Z,8.50
2018-11-14T01:26:19.332Z,8.50
2018-11-14T01:28:49.967Z,8.40
2018-11-14T01:31:19.764Z,8.50
2018-11-14T01:33:50.525Z,8.50
2018-11-14T01:36:20.294Z,8.50
2018-11-14T01:38:50.016Z,8.50
2018-11-14T01:41:19.838Z,8.50
2018-11-14T01:43:50.586Z,8.50
2018-11-14T01:46:20.335Z,8.50
2018-11-14T01:48:50.247Z,8.50
2018-11-14T01:51:21.006Z,8.50
2018-11-14T01:53:50.684Z,8.50
2018-11-14T01:56:20.338Z,8.50
2018-11-14T01:58:49.964Z,8.50
2018-11-14T02:01:19.725Z,8.50
2018-11-14T02:03:49.336Z,8.50
2018-11-14T02:06:18.967Z,8.50
2018-11-14T02:08:48.612Z,8.50
2018-11-14T02:11:18.315Z,8.40
2018-11-14T02:13:47.948Z,8.50
2018-11-14T02:16:17.631Z,8.50
2018-11-14T02:18:47.323Z,8.50
2018-11-14T02:21:17.960Z,8.40
2018-11-14T02:23:47.568Z,8.40
2018-11-14T02:26:17.235Z,8.50
2018-11-14T02:28:46.873Z,8.40
2018-11-14T02:31:17.493Z,8.50
2018-11-14T02:33:48.028Z,8.40
2018-11-14T02:36:17.841Z,8.40
2018-11-14T02:38:47.468Z,8.40
2018-11-14T02:41:17.168Z,8.50
2018-11-14T02:43:46.795Z,8.40
2018-11-14T02:46:16.492Z,8.40
2018-11-14T02:48:46.120Z,8.40
2018-11-14T02:51:23.392Z,8.40
2018-11-14T02:53:53.053Z,8.40
2018-11-14T02:56:23.748Z,8.40
2018-11-14T02:58:53.373Z,8.40
2018-11-14T03:01:22.997Z,8.40
2018-11-14T03:03:53.631Z,8.40
2018-11-14T03:06:23.296Z,8.50
2018-11-14T03:08:52.992Z,8.40
2018-11-14T03:11:23.260Z,8.40
2018-11-14T03:13:52.865Z,8.40
2018-11-14T03:16:22.522Z,8.40
2018-11-14T03:18:53.142Z,8.30
2018-11-14T03:21:22.805Z,8.40
2018-11-14T03:23:53.441Z,8.40
2018-11-14T03:26:23.953Z,8.40
2018-11-14T03:28:53.571Z,8.40
2018-11-14T03:31:23.220Z,8.50
2018-11-14T03:33:52.832Z,8.40
2018-11-14T03:36:22.455Z,8.40
2018-11-14T03:38:52.719Z,8.40
2018-11-14T03:41:22.364Z,8.40
2018-11-14T03:43:51.971Z,8.50
2018-11-14T03:46:21.594Z,8.50
2018-11-14T03:48:51.212Z,8.40
2018-11-14T03:51:21.843Z,8.50
2018-11-14T03:53:53.391Z,8.50
2018-11-14T03:56:24.031Z,8.50
2018-11-14T03:58:53.709Z,8.50
2018-11-14T04:01:23.356Z,8.50
2018-11-14T04:03:52.993Z,8.40
2018-11-14T04:06:22.613Z,8.40
2018-11-14T04:08:53.275Z,8.40
2018-11-14T04:11:22.925Z,8.30
2018-11-14T04:13:52.871Z,8.40
2018-11-14T04:16:22.550Z,8.40
2018-11-14T04:18:52.172Z,8.40
2018-11-14T04:21:21.836Z,8.40
2018-11-14T04:23:51.772Z,8.40
2018-11-14T04:26:22.440Z,8.40
2018-11-14T04:28:53.083Z,8.40
2018-11-14T04:31:24.116Z,8.40
2018-11-14T04:33:54.684Z,8.40
2018-11-14T04:36:24.320Z,8.40
2018-11-14T04:38:55.000Z,8.40
2018-11-14T04:41:24.643Z,8.40
2018-11-14T04:43:55.257Z,8.40
2018-11-14T04:46:24.955Z,8.40
2018-11-14T04:48:55.598Z,8.40
2018-11-14T04:51:26.243Z,8.50
2018-11-14T04:53:56.145Z,8.40
2018-11-14T04:56:25.780Z,8.50
2018-11-14T04:58:56.292Z,8.50
2018-11-14T05:01:25.937Z,8.40
2018-11-14T05:03:55.759Z,8.40
2018-11-14T05:06:25.401Z,8.40
2018-11-14T05:08:55.031Z,8.40
2018-11-14T05:11:25.682Z,8.40
2018-11-14T05:13:56.327Z,8.40
2018-11-14T05:16:25.957Z,8.40
2018-11-14T05:18:55.567Z,8.40
2018-11-14T05:21:26.293Z,8.40
2018-11-14T05:23:55.909Z,8.30
2018-11-14T05:26:25.515Z,8.40
2018-11-14T05:28:56.160Z,8.40
2018-11-14T05:31:25.793Z,8.40
2018-11-14T05:33:55.412Z,8.40
2018-11-14T05:36:25.884Z,8.40
2018-11-14T05:38:55.505Z,8.40
2018-11-14T05:41:25.686Z,8.40
2018-11-14T05:43:55.298Z,8.40
2018-11-14T05:46:24.899Z,8.30
2018-11-14T05:48:55.529Z,8.30
2018-11-14T05:51:25.168Z,8.30
2018-11-14T05:53:54.776Z,8.30
2018-11-14T05:56:24.435Z,8.30
2018-11-14T05:58:54.059Z,8.30
2018-11-14T06:01:24.554Z,8.30
2018-11-14T06:03:54.172Z,8.30
2018-11-14T06:06:23.814Z,8.30
2018-11-14T06:08:53.437Z,8.30
2018-11-14T06:11:23.142Z,8.20
2018-11-14T06:13:53.876Z,8.20
2018-11-14T06:16:24.527Z,8.20
2018-11-14T06:18:56.072Z,8.20
2018-11-14T06:21:25.716Z,8.30
2018-11-14T06:23:55.340Z,8.20
2018-11-14T06:26:24.955Z,8.30
2018-11-14T06:28:56.593Z,8.20
2018-11-14T06:31:27.269Z,8.20
2018-11-14T06:33:57.204Z,8.20
2018-11-14T06:36:26.824Z,8.20
2018-11-14T06:38:56.411Z,8.20
2018-11-14T06:41:26.598Z,8.20
2018-11-14T06:43:56.220Z,8.20
2018-11-14T06:46:26.862Z,8.20
2018-11-14T06:48:56.487Z,8.30
2018-11-14T06:51:27.148Z,8.20
2018-11-14T06:53:56.959Z,8.30
2018-11-14T06:56:27.661Z,8.30
2018-11-14T06:58:57.400Z,8.30
2018-11-14T07:01:26.908Z,8.30
2018-11-14T07:03:57.847Z,8.30
2018-11-14T07:06:27.499Z,8.30
2018-11-14T07:08:57.174Z,8.40
2018-11-14T07:11:26.836Z,8.30
2018-11-14T07:13:56.456Z,8.40
2018-11-14T07:16:26.050Z,8.50
2018-11-14T07:18:55.697Z,8.50
2018-11-14T07:21:26.347Z,8.50
2018-11-14T07:23:56.885Z,8.50
2018-11-14T07:26:26.520Z,8.50
2018-11-14T07:28:56.131Z,8.50
2018-11-14T07:31:25.885Z,8.50
2018-11-14T07:33:55.554Z,8.50
2018-11-14T07:36:25.216Z,8.60
2018-11-14T07:38:55.840Z,8.60
2018-11-14T07:41:29.801Z,8.60
2018-11-14T07:43:59.439Z,8.60
2018-11-14T07:46:30.376Z,8.70
2018-11-14T07:49:01.180Z,8.70
2018-11-14T07:51:30.929Z,8.70
2018-11-14T07:54:00.719Z,8.80
2018-11-14T07:56:30.343Z,8.80
2018-11-14T07:58:59.963Z,8.90
2018-11-14T08:01:29.583Z,8.90
2018-11-14T08:03:59.299Z,8.90
2018-11-14T08:06:28.923Z,9.00
2018-11-14T08:08:58.528Z,9.00
2018-11-14T08:11:28.141Z,9.00
2018-11-14T08:13:58.376Z,9.10
2018-11-14T08:16:28.048Z,9.00
2018-11-14T08:18:57.750Z,9.10
2018-11-14T08:21:27.699Z,9.10
2018-11-14T08:23:58.995Z,9.20
2018-11-14T08:26:28.679Z,9.20
2018-11-14T08:28:58.304Z,9.30
2018-11-14T08:31:27.920Z,9.40
2018-11-14T08:33:57.551Z,9.50
2018-11-14T08:36:27.153Z,9.50
2018-11-14T08:38:57.775Z,9.50
2018-11-14T08:41:27.442Z,9.60
2018-11-14T08:43:57.039Z,9.70
2018-11-14T08:46:26.699Z,9.90
2018-11-14T08:48:56.367Z,10.10
2018-11-14T08:51:26.012Z,10.30
2018-11-14T08:53:55.645Z,10.20
2018-11-14T08:56:25.283Z,10.10
2018-11-14T08:58:54.893Z,10.10
2018-11-14T09:01:24.552Z,10.20
2018-11-14T09:03:54.257Z,10.20
2018-11-14T09:06:24.273Z,10.30
2018-11-14T09:08:53.886Z,10.30
2018-11-14T09:11:23.692Z,10.30
2018-11-14T09:13:53.191Z,10.20
2018-11-14T09:16:23.311Z,10.20
2018-11-14T09:18:52.951Z,10.10
2018-11-14T09:21:23.591Z,10.10
2018-11-14T09:23:55.175Z,10.00
2018-11-14T09:26:25.788Z,9.90
2018-11-14T09:28:55.424Z,9.80
2018-11-14T09:31:25.094Z,9.80
2018-11-14T09:33:54.707Z,9.80
2018-11-14T09:36:24.319Z,9.80
2018-11-14T09:38:53.969Z,9.80
2018-11-14T09:41:23.651Z,9.80
2018-11-14T09:43:53.284Z,9.90
2018-11-14T09:46:22.944Z,9.90
2018-11-14T09:48:52.556Z,9.90
2018-11-14T09:51:23.209Z,10.00
2018-11-14T09:53:52.847Z,10.00
2018-11-14T09:56:22.502Z,10.00
2018-11-14T09:58:52.191Z,10.00
2018-11-14T10:01:22.891Z,10.00
2018-11-14T10:03:53.355Z,10.00
2018-11-14T10:06:24.033Z,10.00
2018-11-14T10:08:53.723Z,10.00
2018-11-14T10:11:23.347Z,10.00
2018-11-14T10:13:53.031Z,10.00
2018-11-14T10:16:22.664Z,9.90
2018-11-14T10:18:52.805Z,9.90
2018-11-14T10:21:23.572Z,9.90
2018-11-14T10:23:53.169Z,9.90
2018-11-14T10:26:22.829Z,9.80
2018-11-14T10:28:52.441Z,9.80
2018-11-14T10:31:22.193Z,9.80
2018-11-14T10:33:52.820Z,9.80
2018-11-14T10:36:22.649Z,9.70
2018-11-14T10:38:52.257Z,9.80
2018-11-14T10:41:22.642Z,9.80
2018-11-14T10:43:52.240Z,9.80
2018-11-14T10:46:21.940Z,9.90
2018-11-14T10:48:51.555Z,9.90
2018-11-14T10:51:21.183Z,10.00
2018-11-14T10:53:50.799Z,10.10
2018-11-14T10:56:20.462Z,10.20
2018-11-14T10:58:50.280Z,10.20
2018-11-14T11:01:25.261Z,10.20
2018-11-14T11:04:01.114Z,10.30
2018-11-14T11:06:43.741Z,10.30
2018-11-14T11:09:18.475Z,10.30
2018-11-14T11:11:53.424Z,10.20
2018-11-14T11:14:28.303Z,10.20
2018-11-14T11:17:03.040Z,10.20
2018-11-14T11:19:32.860Z,10.10
2018-11-14T11:22:02.524Z,10.20
2018-11-14T11:24:33.167Z,10.10
2018-11-14T11:27:02.803Z,10.10
2018-11-14T11:29:32.431Z,10.10
2018-11-14T11:32:03.149Z,10.10
2018-11-14T11:34:32.786Z,10.10
2018-11-14T11:37:02.420Z,10.10
2018-11-14T11:39:32.061Z,10.10
2018-11-14T11:42:01.684Z,10.20
2018-11-14T11:44:32.263Z,10.10
2018-11-14T11:47:01.865Z,10.10
2018-11-14T11:49:31.482Z,10.10
2018-11-14T11:52:01.140Z,10.10
2018-11-14T11:54:30.807Z,10.10
2018-11-14T11:57:01.439Z,10.10
2018-11-14T11:59:32.151Z,10.10
2018-11-14T12:02:01.816Z,10.10
2018-11-14T12:04:32.465Z,10.10
2018-11-14T12:07:03.000Z,10.10
2018-11-14T12:09:33.676Z,10.10
2018-11-14T12:12:03.741Z,10.10
2018-11-14T12:14:33.387Z,10.10
2018-11-14T12:17:03.060Z,10.00
2018-11-14T12:19:32.701Z,10.00
2018-11-14T12:22:02.358Z,10.00
2018-11-14T12:24:33.007Z,9.90
2018-11-14T12:27:03.726Z,9.90
2018-11-14T12:29:33.343Z,9.90
2018-11-14T12:32:02.983Z,9.90
2018-11-14T12:34:32.647Z,9.80
2018-11-14T12:37:03.315Z,9.90
2018-11-14T12:39:33.979Z,9.90
2018-11-14T12:42:03.642Z,9.90
2018-11-14T12:44:33.280Z,9.90
2018-11-14T12:47:02.934Z,9.90
2018-11-14T12:49:32.547Z,9.90
2018-11-14T12:52:02.999Z,9.80
2018-11-14T12:54:32.640Z,9.80
2018-11-14T12:57:02.262Z,9.80
2018-11-14T12:59:32.720Z,9.90
2018-11-14T13:02:02.322Z,9.90
2018-11-14T13:04:31.937Z,9.80
2018-11-14T13:07:01.545Z,9.90
2018-11-14T13:09:32.123Z,9.80
2018-11-14T13:12:01.732Z,9.80
2018-11-14T13:14:32.379Z,9.80
2018-11-14T13:17:01.967Z,9.80
2018-11-14T13:19:31.581Z,9.80
2018-11-14T13:22:01.236Z,9.80
2018-11-14T13:24:30.854Z,9.70
2018-11-14T13:27:00.810Z,9.70
2018-11-14T13:29:30.795Z,9.70
2018-11-14T13:32:00.428Z,9.70
2018-11-14T13:34:30.051Z,9.70
2018-11-14T13:36:59.696Z,9.70
2018-11-14T13:39:29.369Z,9.60
2018-11-14T13:41:58.986Z,9.60
2018-11-14T13:44:28.836Z,9.60
2018-11-14T13:47:00.111Z,9.60
2018-11-14T13:49:29.817Z,9.60
2018-11-14T13:51:59.396Z,9.50
2018-11-14T13:54:29.042Z,9.60
2018-11-14T13:56:59.584Z,9.60
2018-11-14T13:59:29.255Z,9.50
2018-11-14T14:01:59.699Z,9.50
2018-11-14T14:04:29.380Z,9.50
2018-11-14T14:07:00.055Z,9.50
2018-11-14T14:09:29.748Z,9.50
2018-11-14T14:11:59.385Z,9.50
2018-11-14T14:14:30.907Z,9.50
2018-11-14T14:17:00.885Z,9.50
2018-11-14T14:19:30.511Z,9.50
2018-11-14T14:22:00.191Z,9.50
2018-11-14T14:25:00.279Z,9.40
2018-11-14T14:27:29.878Z,9.40
2018-11-14T14:29:59.483Z,9.40
2018-11-14T14:32:29.130Z,9.40
2018-11-14T14:34:58.952Z,9.40
2018-11-14T14:37:29.589Z,9.30
2018-11-14T14:39:59.227Z,9.40
2018-11-14T14:42:28.863Z,9.40
2018-11-14T14:44:58.471Z,9.30
2018-11-14T14:47:28.120Z,9.30
2018-11-14T14:49:57.734Z,9.30
2018-11-14T14:52:27.340Z,9.20
2018-11-14T14:54:57.030Z,9.20
2018-11-14T14:57:26.643Z,9.20
2018-11-14T14:59:56.253Z,9.20
2018-11-14T15:02:25.870Z,9.10
2018-11-14T15:04:55.504Z,9.10
2018-11-14T15:07:25.112Z,9.10
2018-11-14T15:09:54.732Z,9.10
2018-11-14T15:12:25.140Z,9.10
2018-11-14T15:14:55.789Z,9.10
2018-11-14T15:17:25.400Z,9.10
2018-11-14T15:19:55.927Z,9.00
2018-11-14T15:22:25.554Z,9.00
2018-11-14T15:24:56.210Z,9.00
2018-11-14T15:27:25.800Z,9.00
2018-11-14T15:29:55.408Z,9.00
2018-11-14T15:32:26.133Z,9.00
2018-11-14T15:34:56.844Z,9.00
2018-11-14T15:37:27.465Z,8.90
2018-11-14T15:39:57.989Z,9.00
2018-11-14T15:42:28.656Z,9.00
2018-11-14T15:44:59.356Z,9.00
2018-11-14T15:47:30.021Z,9.00
2018-11-14T15:49:59.689Z,8.90
2018-11-14T15:52:29.306Z,8.90
2018-11-14T15:54:58.916Z,8.90
2018-11-14T15:57:29.822Z,8.80
2018-11-14T15:59:59.500Z,8.80
2018-11-14T16:02:30.065Z,8.80
2018-11-14T16:04:59.696Z,8.90
2018-11-14T16:07:30.361Z,8.90
2018-11-14T16:10:00.022Z,8.80
2018-11-14T16:12:30.741Z,8.80
2018-11-14T16:15:00.361Z,8.80
2018-11-14T16:17:30.028Z,8.80
2018-11-14T16:19:59.643Z,8.80
2018-11-14T16:22:29.295Z,8.80
2018-11-14T16:24:59.007Z,8.80
2018-11-14T16:27:28.648Z,8.80
2018-11-14T16:29:58.276Z,8.80
2018-11-14T16:32:28.983Z,8.80
2018-11-14T16:34:58.652Z,8.80
2018-11-14T16:37:28.391Z,8.80
2018-11-14T16:39:58.009Z,8.70
2018-11-14T16:42:27.656Z,8.80
2018-11-14T16:44:57.287Z,8.70
2018-11-14T16:47:27.356Z,8.70
2018-11-14T16:49:56.984Z,8.70
2018-11-14T16:52:26.635Z,8.80
2018-11-14T16:54:56.367Z,8.70
2018-11-14T16:57:26.144Z,8.70
2018-11-14T16:59:55.797Z,8.70
2018-11-14T17:02:25.585Z,8.70
2018-11-14T17:04:55.234Z,8.70
2018-11-14T17:07:24.876Z,8.70
2018-11-14T17:09:54.489Z,8.70
2018-11-14T17:12:24.145Z,8.70
2018-11-14T17:14:53.846Z,8.70
2018-11-14T17:17:23.528Z,8.70
2018-11-14T17:19:53.196Z,8.70
2018-11-14T17:22:22.841Z,8.60
2018-11-14T17:24:52.503Z,8.60
2018-11-14T17:27:22.195Z,8.60
2018-11-14T17:29:52.627Z,8.60
2018-11-14T17:32:22.872Z,8.60
2018-11-14T17:34:53.537Z,8.60
2018-11-14T17:37:24.293Z,8.60
2018-11-14T17:39:54.579Z,8.60
2018-11-14T17:42:24.955Z,8.60
2018-11-14T17:44:55.147Z,8.60
2018-11-14T17:47:25.565Z,8.60
2018-11-14T17:49:55.825Z,8.50
2018-11-14T17:52:26.120Z,8.60
2018-11-14T17:54:56.526Z,8.60
2018-11-14T17:57:26.773Z,8.60
2018-11-14T17:59:57.081Z,8.50
2018-11-14T18:02:27.440Z,8.50
2018-11-14T18:04:57.684Z,8.50
2018-11-14T18:07:28.214Z,8.50
2018-11-14T18:09:58.483Z,8.50
2018-11-14T18:12:28.726Z,8.50
2018-11-14T18:17:23.362Z,8.50
2018-11-14T18:19:55.542Z,8.50
2018-11-14T18:22:25.805Z,8.50
2018-11-14T18:24:56.048Z,8.50
2018-11-14T18:27:26.296Z,8.50
2018-11-14T18:29:57.556Z,8.50
2018-11-14T18:32:27.841Z,8.50
2018-11-14T18:34:59.164Z,8.50
2018-11-14T18:37:30.562Z,8.50
2018-11-14T18:40:00.809Z,8.50
2018-11-14T18:42:32.151Z,8.50
2018-11-14T18:45:03.364Z,8.50
2018-11-14T18:47:33.704Z,8.50
2018-11-14T18:50:05.191Z,8.50
2018-11-14T18:52:35.552Z,8.50
2018-11-14T18:55:07.334Z,8.50
2018-11-14T18:57:39.151Z,8.50
2018-11-14T19:00:15.356Z,8.50
2018-11-14T19:02:46.018Z,8.40
2018-11-14T19:05:16.928Z,8.40
2018-11-14T19:07:47.247Z,8.40
2018-11-14T19:10:18.875Z,8.40
2018-11-14T19:12:50.909Z,8.40
2018-11-14T19:15:30.718Z,8.40
2018-11-14T19:18:01.992Z,8.40
2018-11-14T19:20:36.482Z,8.40
2018-11-14T19:23:07.147Z,8.40
2018-11-14T19:25:38.476Z,8.40
2018-11-14T19:28:08.764Z,8.30
2018-11-14T19:30:39.112Z,8.40
2018-11-14T19:33:13.291Z,8.40
2018-11-14T19:35:43.558Z,8.40
2018-11-14T19:38:13.923Z,8.40
2018-11-14T19:40:45.176Z,8.40
2018-11-14T19:43:16.396Z,8.40
2018-11-14T19:45:46.685Z,8.40
2018-11-14T19:48:16.969Z,8.40
2018-11-14T19:50:47.233Z,8.40
2018-11-14T19:53:18.498Z,8.40
2018-11-14T19:55:49.768Z,8.40
2018-11-14T19:58:20.330Z,8.40
2018-11-14T20:00:50.632Z,8.40
2018-11-14T20:03:20.904Z,8.40
2018-11-14T20:05:52.143Z,8.40
2018-11-14T20:08:23.407Z,8.40
2018-11-14T20:10:54.669Z,8.40
2018-11-14T20:13:25.060Z,8.40
2018-11-14T20:15:56.368Z,8.40
2018-11-14T20:18:26.628Z,8.40
2018-11-14T20:20:56.839Z,8.30
2018-11-14T20:23:27.908Z,8.30
2018-11-14T20:25:58.241Z,8.30
2018-11-14T20:28:28.488Z,8.30
2018-11-14T20:30:58.754Z,8.30
2018-11-14T20:33:29.187Z,8.30
2018-11-14T20:36:00.446Z,8.30
2018-11-14T20:38:30.698Z,8.30
2018-11-14T20:41:00.920Z,8.30
2018-11-14T20:43:32.208Z,8.30
2018-11-14T20:46:02.445Z,8.20
2018-11-14T20:48:32.728Z,8.20
2018-11-14T20:51:03.904Z,8.20
2018-11-14T20:53:35.303Z,8.20
2018-11-14T20:56:05.971Z,8.20
2018-11-14T20:58:36.223Z,8.20
2018-11-14T21:01:06.859Z,8.20
2018-11-14T21:03:37.697Z,8.20
2018-11-14T21:06:07.976Z,8.20
2018-11-14T21:08:38.271Z,8.20
2018-11-14T21:11:08.585Z,8.20
2018-11-14T21:13:38.885Z,8.20
2018-11-14T21:16:09.169Z,8.20
2018-11-14T21:18:40.393Z,8.20
2018-11-14T21:21:10.615Z,8.20
2018-11-14T21:23:40.933Z,8.20
2018-11-14T21:26:12.210Z,8.30
2018-11-14T21:28:42.502Z,8.20
2018-11-14T21:31:12.754Z,8.20
2018-11-14T21:33:44.024Z,8.30
2018-11-14T21:36:14.264Z,8.20
2018-11-14T21:38:44.548Z,8.20
2018-11-14T21:41:14.788Z,8.20
2018-11-14T21:43:45.103Z,8.20
2018-11-14T21:46:15.331Z,8.20
2018-11-14T21:48:45.620Z,8.10
2018-11-14T21:51:16.816Z,8.20
2018-11-14T21:53:47.081Z,8.10
2018-11-14T21:56:17.304Z,8.20
2018-11-14T21:58:48.568Z,8.20
2018-11-14T22:01:19.882Z,8.20
2018-11-14T22:03:50.146Z,8.10
2018-11-14T22:06:21.269Z,8.10
2018-11-14T22:08:52.550Z,8.10
2018-11-14T22:11:22.822Z,8.10
2018-11-14T22:13:54.102Z,8.10
2018-11-14T22:16:24.329Z,8.10
2018-11-14T22:18:54.597Z,8.10
2018-11-14T22:21:24.840Z,8.10
2018-11-14T22:23:55.102Z,8.10
2018-11-14T22:26:25.368Z,8.10
2018-11-14T22:28:55.646Z,8.10
2018-11-14T22:31:25.921Z,8.10
2018-11-14T22:33:57.171Z,8.10
2018-11-14T22:36:28.405Z,8.10
2018-11-14T22:38:58.707Z,8.10
2018-11-14T22:41:28.962Z,8.10
2018-11-14T22:43:59.186Z,8.10
2018-11-14T22:46:30.383Z,8.10
2018-11-14T22:49:00.636Z,8.10
2018-11-14T22:51:31.860Z,8.10
2018-11-14T22:54:02.134Z,8.10
2018-11-14T22:56:32.389Z,8.10
2018-11-14T22:59:02.652Z,8.10
2018-11-14T23:01:32.883Z,8.10
2018-11-14T23:04:03.155Z,8.10
2018-11-14T23:06:33.402Z,8.10
2018-11-14T23:09:03.832Z,8.10
2018-11-14T23:11:34.084Z,8.10
2018-11-14T23:14:05.232Z,8.10
2018-11-14T23:16:36.815Z,8.10
2018-11-14T23:19:09.208Z,8.10
2018-11-14T23:21:40.387Z,8.10
2018-11-14T23:24:10.703Z,8.10
2018-11-14T23:26:40.952Z,8.10
2018-11-14T23:29:11.215Z,8.10
2018-11-14T23:31:42.455Z,8.10
2018-11-14T23:34:12.983Z,8.10
2018-11-14T23:36:43.243Z,8.10
2018-11-14T23:39:14.484Z,8.10
2018-11-14T23:41:44.729Z,8.10
2018-11-14T23:44:14.998Z,8.00
2018-11-14T23:46:45.265Z,8.10
2018-11-14T23:49:15.533Z,8.10
2018-11-14T23:51:45.766Z,8.10
2018-11-14T23:54:16.017Z,8.10
2018-11-14T23:56:46.383Z,8.10
2018-11-14T23:59:17.648Z,8.10
